createdAt,value
2023-02-11T00:01:11.502Z,74.04
2023-02-11T00:03:39.634Z,73.73
2023-02-11T00:06:11.257Z,73.59
2023-02-11T00:08:39.053Z,74.12
2023-02-11T00:11:07.991Z,74.51
2023-02-11T00:13:35.784Z,74.74
2023-02-11T00:16:09.768Z,75.55
2023-02-11T00:18:37.679Z,75.01
2023-02-11T00:21:11.694Z,75.73
2023-02-11T00:23:39.546Z,75.67
2023-02-11T00:26:17.467Z,74.47
2023-02-11T00:28:46.687Z,73.96
2023-02-11T00:31:14.865Z,73.43
2023-02-11T00:33:42.790Z,73.06
2023-02-11T00:36:16.887Z,73.40
2023-02-11T00:38:48.024Z,72.64
2023-02-11T00:41:15.715Z,71.44
2023-02-11T00:43:44.699Z,70.32
2023-02-11T00:46:12.585Z,70.40
2023-02-11T00:48:40.300Z,70.06
2023-02-11T00:51:09.053Z,70.16
2023-02-11T00:53:37.791Z,69.21
2023-02-11T00:56:06.194Z,69.67
2023-02-11T00:58:34.556Z,69.56
2023-02-11T01:06:00.378Z,69.70
2023-02-11T01:08:28.146Z,69.59
2023-02-11T01:11:00.515Z,69.99
2023-02-11T01:13:28.659Z,70.34
2023-02-11T01:15:56.525Z,70.60
2023-02-11T01:18:25.066Z,70.60
2023-02-11T01:20:52.974Z,71.15
2023-02-11T01:23:20.720Z,71.35
2023-02-11T01:25:49.198Z,70.97
2023-02-11T01:28:18.009Z,71.88
2023-02-11T01:30:45.620Z,71.41
2023-02-11T01:33:14.214Z,71.58
2023-02-11T01:35:41.905Z,71.45
2023-02-11T01:38:15.462Z,72.12
2023-02-11T01:40:54.243Z,72.53
2023-02-11T01:43:22.419Z,72.47
2023-02-11T01:45:53.327Z,72.56
2023-02-11T01:48:24.124Z,72.48
2023-02-11T01:50:55.365Z,72.90
2023-02-11T01:53:41.732Z,72.34
2023-02-11T01:56:27.756Z,71.81
2023-02-11T01:58:56.678Z,72.64
2023-02-11T02:01:25.236Z,72.30
2023-02-11T02:03:55.207Z,73.14
2023-02-11T02:06:27.409Z,74.58
2023-02-11T02:09:01.586Z,73.43
2023-02-11T02:11:31.604Z,72.11
2023-02-11T02:13:59.310Z,72.44
2023-02-11T02:16:33.643Z,73.52
2023-02-11T02:19:33.708Z,73.20
2023-02-11T02:22:10.793Z,72.17
2023-02-11T02:24:57.976Z,74.60
2023-02-11T02:28:03.143Z,74.06
2023-02-11T02:31:01.670Z,75.35
2023-02-11T02:33:41.753Z,75.17
2023-02-11T02:36:13.789Z,75.35
2023-02-11T02:42:53.700Z,74.16
2023-02-11T02:45:21.480Z,74.15
2023-02-11T02:47:49.089Z,74.59
2023-02-11T02:50:17.912Z,75.65
2023-02-11T02:52:51.261Z,75.60
2023-02-11T02:55:57.716Z,75.75
2023-02-11T02:58:34.298Z,75.95
2023-02-11T03:01:22.077Z,76.87
2023-02-11T03:03:57.790Z,76.33
2023-02-11T03:06:38.215Z,76.15
2023-02-11T03:09:26.514Z,75.96
2023-02-11T03:11:54.900Z,76.35
2023-02-11T03:14:22.615Z,76.98
2023-02-11T03:16:50.539Z,77.25
2023-02-11T03:19:23.251Z,77.12
2023-02-11T03:21:51.987Z,76.38
2023-02-11T03:24:31.027Z,76.25
2023-02-11T03:27:02.205Z,76.71
2023-02-11T03:29:41.680Z,77.18
2023-02-11T03:32:23.659Z,78.00
2023-02-11T03:34:58.962Z,77.44
2023-02-11T03:37:31.302Z,76.92
2023-02-11T03:40:17.370Z,75.87
2023-02-11T03:43:31.473Z,75.60
2023-02-11T03:45:59.188Z,76.45
2023-02-11T03:48:32.053Z,76.59
2023-02-11T03:51:00.270Z,76.59
2023-02-11T03:53:27.906Z,76.76
2023-02-11T03:55:55.734Z,77.30
2023-02-11T03:58:23.362Z,77.35
2023-02-11T04:00:51.460Z,76.96
2023-02-11T04:03:19.303Z,76.59
2023-02-11T04:05:47.053Z,76.62
2023-02-11T04:08:14.732Z,76.54
2023-02-11T04:10:42.714Z,76.73
2023-02-11T04:13:10.331Z,76.85
2023-02-11T04:15:38.439Z,77.97
2023-02-11T04:18:08.257Z,77.34
2023-02-11T04:20:36.186Z,77.21
2023-02-11T04:23:03.694Z,78.06
2023-02-11T04:25:31.474Z,78.79
2023-02-11T04:27:59.095Z,78.86
2023-02-11T04:30:27.226Z,79.23
2023-02-11T04:32:54.965Z,79.23
2023-02-11T04:35:22.814Z,80.28
2023-02-11T04:37:50.630Z,79.88
2023-02-11T04:40:18.470Z,80.35
2023-02-11T04:42:46.958Z,79.86
2023-02-11T04:45:14.910Z,80.51
2023-02-11T04:47:42.659Z,80.01
2023-02-11T04:50:10.397Z,79.92
2023-02-11T04:52:38.115Z,80.24
2023-02-11T04:55:06.300Z,80.12
2023-02-11T04:57:33.862Z,80.14
2023-02-11T05:00:01.571Z,80.05
2023-02-11T05:02:29.253Z,81.20
2023-02-11T05:04:56.826Z,80.43
2023-02-11T05:07:24.530Z,80.81
2023-02-11T05:09:52.211Z,81.17
2023-02-11T05:12:19.959Z,80.23
2023-02-11T05:14:47.785Z,80.50
2023-02-11T05:17:15.912Z,80.69
2023-02-11T05:19:43.830Z,80.46
2023-02-11T05:22:12.123Z,80.90
2023-02-11T05:24:39.941Z,80.00
2023-02-11T05:27:07.469Z,80.85
2023-02-11T05:29:35.362Z,80.50
2023-02-11T05:32:03.501Z,80.79
2023-02-11T05:34:31.161Z,80.49
2023-02-11T05:36:59.007Z,80.34
2023-02-11T05:39:26.957Z,80.39
2023-02-11T05:41:55.117Z,80.29
2023-02-11T05:44:22.758Z,80.38
2023-02-11T05:46:50.312Z,80.25
2023-02-11T05:49:18.668Z,80.12
2023-02-11T05:51:46.291Z,80.28
2023-02-11T05:54:14.161Z,80.08
2023-02-11T05:56:43.784Z,79.93
2023-02-11T05:59:13.982Z,79.76
2023-02-11T06:01:41.699Z,79.41
2023-02-11T06:04:09.434Z,79.38
2023-02-11T06:06:37.058Z,79.32
2023-02-11T06:09:06.540Z,79.68
2023-02-11T06:11:34.803Z,79.25
2023-02-11T06:14:05.593Z,78.88
2023-02-11T06:16:33.627Z,78.91
2023-02-11T06:19:01.276Z,78.41
2023-02-11T06:21:42.991Z,78.29
2023-02-11T06:24:12.601Z,77.34
2023-02-11T06:26:40.969Z,77.15
2023-02-11T06:29:09.111Z,76.92
2023-02-11T06:31:37.769Z,76.54
2023-02-11T06:34:06.128Z,76.33
2023-02-11T06:36:34.104Z,75.16
2023-02-11T06:39:02.164Z,74.79
2023-02-11T06:41:29.964Z,74.21
2023-02-11T06:43:57.921Z,72.74
2023-02-11T06:46:25.744Z,72.47
2023-02-11T06:48:53.593Z,72.38
2023-02-11T06:51:21.219Z,71.19
2023-02-11T06:53:49.178Z,71.26
2023-02-11T06:56:23.182Z,69.37
2023-02-11T06:58:55.557Z,68.96
2023-02-11T07:01:23.862Z,67.16
2023-02-11T07:03:51.662Z,66.92
2023-02-11T07:06:21.507Z,67.43
2023-02-11T07:08:49.581Z,66.90
2023-02-11T07:11:20.687Z,67.28
2023-02-11T07:13:49.585Z,67.64
2023-02-11T07:16:18.013Z,66.00
2023-02-11T07:18:47.000Z,65.40
2023-02-11T07:21:16.082Z,65.35
2023-02-11T07:23:44.209Z,65.33
2023-02-11T07:26:16.634Z,65.44
2023-02-11T07:28:45.089Z,64.50
2023-02-11T07:31:17.466Z,65.25
2023-02-11T07:33:46.143Z,64.75
2023-02-11T07:36:14.767Z,64.87
2023-02-11T07:38:43.864Z,65.55
2023-02-11T07:41:18.387Z,64.61
2023-02-11T07:43:46.403Z,63.66
2023-02-11T07:46:18.904Z,63.22
2023-02-11T07:48:47.001Z,63.30
2023-02-11T07:51:15.840Z,63.17
2023-02-11T07:53:44.097Z,63.57
2023-02-11T07:56:13.659Z,62.79
2023-02-11T07:58:43.269Z,61.91
2023-02-11T08:01:14.058Z,62.00
2023-02-11T08:03:44.946Z,61.32
2023-02-11T08:06:18.176Z,60.76
2023-02-11T08:08:46.567Z,60.71
2023-02-11T08:11:16.613Z,60.31
2023-02-11T08:13:45.000Z,60.05
2023-02-11T08:16:21.897Z,60.14
2023-02-11T08:18:50.454Z,59.16
2023-02-11T08:21:18.878Z,58.50
2023-02-11T08:23:46.964Z,59.56
2023-02-11T08:26:19.773Z,59.40
2023-02-11T08:28:48.311Z,58.66
2023-02-11T08:31:17.210Z,58.35
2023-02-11T08:33:46.696Z,56.67
2023-02-11T08:36:16.396Z,54.91
2023-02-11T08:38:45.070Z,56.36
2023-02-11T08:41:15.124Z,54.86
2023-02-11T08:43:44.100Z,53.56
2023-02-11T08:46:13.931Z,54.45
2023-02-11T08:48:42.030Z,54.54
2023-02-11T08:51:20.516Z,55.41
2023-02-11T08:53:48.491Z,55.23
2023-02-11T08:56:16.922Z,55.45
2023-02-11T08:58:45.025Z,54.69
2023-02-11T09:01:25.651Z,54.57
2023-02-11T09:03:54.126Z,53.81
2023-02-11T09:06:22.641Z,54.38
2023-02-11T09:08:52.427Z,53.60
2023-02-11T09:11:21.948Z,54.42
2023-02-11T09:13:54.540Z,53.21
2023-02-11T09:16:27.936Z,53.79
2023-02-11T09:18:59.785Z,52.02
2023-02-11T09:21:28.210Z,52.06
2023-02-11T09:23:56.406Z,52.98
2023-02-11T09:26:30.120Z,53.10
2023-02-11T09:28:59.789Z,52.12
2023-02-11T09:31:30.620Z,51.91
2023-02-11T09:34:00.794Z,52.58
2023-02-11T09:36:38.724Z,51.70
2023-02-11T09:39:09.772Z,52.09
2023-02-11T09:41:41.365Z,52.15
2023-02-11T09:44:10.914Z,50.78
2023-02-11T09:46:41.623Z,51.40
2023-02-11T09:49:18.187Z,51.13
2023-02-11T09:51:49.411Z,51.79
2023-02-11T09:54:20.679Z,51.46
2023-02-11T09:56:52.636Z,51.58
2023-02-11T09:59:21.417Z,51.33
2023-02-11T10:01:51.549Z,50.29
2023-02-11T10:04:49.041Z,50.47
2023-02-11T10:07:35.005Z,50.38
2023-02-11T10:10:15.467Z,51.61
2023-02-11T10:13:11.959Z,52.24
2023-02-11T10:15:48.612Z,51.13
2023-02-11T10:18:29.474Z,51.61
2023-02-11T10:21:18.489Z,51.94
2023-02-11T10:23:49.433Z,51.51
2023-02-11T10:26:18.968Z,51.61
2023-02-11T10:28:52.003Z,51.18
2023-02-11T10:32:00.997Z,51.65
2023-02-11T10:34:33.158Z,51.50
2023-02-11T10:37:18.250Z,50.85
2023-02-11T10:39:50.338Z,50.77
2023-02-11T10:42:21.162Z,51.27
2023-02-11T10:45:07.215Z,49.38
2023-02-11T10:47:44.690Z,50.72
2023-02-11T10:50:36.828Z,50.97
2023-02-11T10:53:21.419Z,51.24
2023-02-11T10:55:55.895Z,52.02
2023-02-11T10:58:29.553Z,52.32
2023-02-11T11:01:01.369Z,52.80
2023-02-11T11:03:34.648Z,52.47
2023-02-11T11:06:14.598Z,52.90
2023-02-11T11:08:47.424Z,52.15
2023-02-11T11:11:23.716Z,52.07
2023-02-11T11:13:52.935Z,51.47
2023-02-11T11:16:26.193Z,52.00
2023-02-11T11:19:08.675Z,51.69
2023-02-11T11:21:51.273Z,53.20
2023-02-11T11:24:34.842Z,53.10
2023-02-11T11:27:20.132Z,52.23
2023-02-11T11:29:54.466Z,52.46
2023-02-11T11:32:29.098Z,52.65
2023-02-11T11:35:04.189Z,52.07
2023-02-11T11:37:36.798Z,51.55
2023-02-11T11:40:14.024Z,51.97
2023-02-11T11:42:42.970Z,51.63
2023-02-11T11:45:22.792Z,51.80
2023-02-11T11:48:06.803Z,52.18
2023-02-11T11:50:55.111Z,52.87
2023-02-11T11:53:55.049Z,54.64
2023-02-11T11:56:30.432Z,54.70
2023-02-11T11:59:10.459Z,54.06
2023-02-11T12:01:44.488Z,53.79
2023-02-11T12:04:37.595Z,54.22
2023-02-11T12:07:15.280Z,54.81
2023-02-11T12:10:23.180Z,54.92
2023-02-11T12:13:03.935Z,54.91
2023-02-11T12:15:42.870Z,54.92
2023-02-11T12:18:38.284Z,54.78
2023-02-11T12:21:18.145Z,55.61
2023-02-11T12:24:04.639Z,54.51
2023-02-11T12:26:46.602Z,55.53
2023-02-11T12:29:14.136Z,55.80
2023-02-11T12:31:49.974Z,57.08
2023-02-11T12:34:51.650Z,56.76
2023-02-11T12:37:38.304Z,57.88
2023-02-11T12:40:16.743Z,59.97
2023-02-11T12:43:11.049Z,58.25
2023-02-11T12:46:05.623Z,58.93
2023-02-11T12:49:01.967Z,60.07
2023-02-11T12:51:54.434Z,60.47
2023-02-11T12:54:31.309Z,60.55
2023-02-11T12:57:11.890Z,61.56
2023-02-11T12:59:59.696Z,60.38
2023-02-11T13:03:11.323Z,61.35
2023-02-11T13:05:57.399Z,61.11
2023-02-11T13:08:37.376Z,62.50
2023-02-11T13:11:31.880Z,61.66
2023-02-11T13:14:15.638Z,61.31
2023-02-11T13:16:49.505Z,61.15
2023-02-11T13:19:36.624Z,61.56
2023-02-11T13:22:18.467Z,61.32
2023-02-11T13:25:23.800Z,61.96
2023-02-11T13:28:00.159Z,61.72
2023-02-11T13:30:33.355Z,61.70
2023-02-11T13:33:01.988Z,60.98
2023-02-11T13:35:34.342Z,61.56
2023-02-11T13:38:03.925Z,61.60
2023-02-11T13:40:41.311Z,61.35
2023-02-11T13:43:31.135Z,61.53
2023-02-11T13:46:31.165Z,62.03
2023-02-11T13:49:00.209Z,62.55
2023-02-11T13:51:41.234Z,61.78
2023-02-11T13:54:09.318Z,61.58
2023-02-11T13:56:40.592Z,62.86
2023-02-11T13:59:28.030Z,62.81
2023-02-11T14:02:45.181Z,63.21
2023-02-11T14:05:45.717Z,64.12
2023-02-11T14:08:39.091Z,63.66
2023-02-11T14:11:11.243Z,64.08
2023-02-11T14:14:15.372Z,64.08
2023-02-11T14:17:00.657Z,64.94
2023-02-11T14:19:45.472Z,66.12
2023-02-11T14:22:28.299Z,65.79
2023-02-11T14:28:25.325Z,67.51
2023-02-11T14:31:06.508Z,67.43
2023-02-11T14:33:48.331Z,67.31
2023-02-11T14:36:44.162Z,67.45
2023-02-11T14:39:36.578Z,67.27
2023-02-11T14:42:04.547Z,68.08
2023-02-11T14:44:33.785Z,67.96
2023-02-11T14:47:02.029Z,68.24
2023-02-11T14:49:32.421Z,67.89
2023-02-11T14:52:08.268Z,68.00
2023-02-11T14:54:38.285Z,68.34
2023-02-11T14:57:15.880Z,67.97
2023-02-11T15:00:07.714Z,68.50
2023-02-11T15:02:39.334Z,68.52
2023-02-11T15:05:29.792Z,68.80
2023-02-11T15:08:00.920Z,69.37
2023-02-11T15:10:32.106Z,68.63
2023-02-11T15:13:02.744Z,68.98
2023-02-11T15:15:33.339Z,68.84
2023-02-11T15:18:03.558Z,68.98
2023-02-11T15:20:32.588Z,69.70
2023-02-11T15:23:02.811Z,69.48
2023-02-11T15:25:33.695Z,70.09
2023-02-11T15:28:02.139Z,70.04
2023-02-11T15:30:32.463Z,70.59
2023-02-11T15:33:03.238Z,69.81
2023-02-11T15:35:36.935Z,69.27
2023-02-11T15:38:05.038Z,70.38
2023-02-11T15:40:37.114Z,70.79
2023-02-11T15:43:06.629Z,70.71
2023-02-11T15:45:36.283Z,70.65
2023-02-11T15:48:18.538Z,70.47
2023-02-11T15:50:51.924Z,70.55
2023-02-11T15:53:33.718Z,71.29
2023-02-11T15:56:06.975Z,70.74
2023-02-11T15:58:41.407Z,69.81
2023-02-11T16:01:09.128Z,69.34
2023-02-11T16:03:36.972Z,69.89
2023-02-11T16:06:21.528Z,70.18
2023-02-11T16:09:02.842Z,69.19
2023-02-11T16:11:33.302Z,68.80
2023-02-11T16:14:01.664Z,69.90
2023-02-11T16:16:33.813Z,70.01
2023-02-11T16:19:05.183Z,69.83
2023-02-11T16:21:42.593Z,70.83
2023-02-11T16:24:22.554Z,70.06
2023-02-11T16:26:52.596Z,70.90
2023-02-11T16:29:26.760Z,70.62
2023-02-11T16:32:04.828Z,70.37
2023-02-11T16:34:33.013Z,70.38
2023-02-11T16:37:03.727Z,70.56
2023-02-11T16:39:31.490Z,70.07
2023-02-11T16:41:59.579Z,69.57
2023-02-11T16:44:28.172Z,69.98
2023-02-11T16:47:00.066Z,69.98
2023-02-11T16:49:31.780Z,69.40
2023-02-11T16:52:03.746Z,69.44
2023-02-11T16:54:33.461Z,69.72
2023-02-11T16:57:01.744Z,69.19
2023-02-11T16:59:29.733Z,70.66
2023-02-11T17:01:57.462Z,70.64
2023-02-11T17:04:26.588Z,70.50
2023-02-11T17:06:58.482Z,70.74
2023-02-11T17:09:30.293Z,72.08
2023-02-11T17:12:01.947Z,72.03
2023-02-11T17:14:30.136Z,71.25
2023-02-11T17:16:58.115Z,70.85
2023-02-11T17:19:26.134Z,70.46
2023-02-11T17:21:53.984Z,69.69
2023-02-11T17:24:22.646Z,70.27
2023-02-11T17:26:50.569Z,70.50
2023-02-11T17:29:21.223Z,70.09
2023-02-11T17:31:49.258Z,70.66
2023-02-11T17:34:17.028Z,72.29
2023-02-11T17:36:44.895Z,72.52
2023-02-11T17:39:13.612Z,72.28
2023-02-11T17:41:41.923Z,71.47
2023-02-11T17:44:12.520Z,71.72
2023-02-11T17:46:41.132Z,72.07
2023-02-11T17:49:14.123Z,71.65
2023-02-11T17:51:43.763Z,72.41
2023-02-11T17:54:13.564Z,73.36
2023-02-11T17:56:41.682Z,72.99
2023-02-11T17:59:09.851Z,72.62
2023-02-11T18:01:39.216Z,72.53
2023-02-11T18:04:13.755Z,73.05
2023-02-11T18:06:42.526Z,72.98
2023-02-11T18:09:10.332Z,73.24
2023-02-11T18:11:39.119Z,73.29
2023-02-11T18:14:08.030Z,72.74
2023-02-11T18:16:36.816Z,72.87
2023-02-11T18:19:04.961Z,73.52
2023-02-11T18:21:37.753Z,73.47
2023-02-11T18:24:07.022Z,73.71
2023-02-11T18:26:35.181Z,74.04
2023-02-11T18:29:03.983Z,75.35
2023-02-11T18:31:31.935Z,75.07
2023-02-11T18:33:59.744Z,75.88
2023-02-11T18:36:27.748Z,75.03
2023-02-11T18:38:58.271Z,75.65
2023-02-11T18:41:25.961Z,75.82
2023-02-11T18:43:54.277Z,74.81
2023-02-11T18:46:22.021Z,74.54
2023-02-11T18:48:50.324Z,73.71
2023-02-11T18:51:18.981Z,74.71
2023-02-11T18:53:47.817Z,74.78
2023-02-11T18:56:18.106Z,74.48
2023-02-11T18:58:45.869Z,73.88
2023-02-11T19:01:18.963Z,74.36
2023-02-11T19:03:46.883Z,74.75
2023-02-11T19:06:22.539Z,74.85
2023-02-11T19:08:52.701Z,74.46
2023-02-11T19:11:41.131Z,74.35
2023-02-11T19:14:10.494Z,74.45
2023-02-11T19:16:40.298Z,76.26
2023-02-11T19:19:08.279Z,74.88
2023-02-11T19:21:36.862Z,74.99
2023-02-11T19:24:08.314Z,75.06
2023-02-11T19:26:35.925Z,75.02
2023-02-11T19:29:04.931Z,75.04
2023-02-11T19:31:32.990Z,75.03
2023-02-11T19:34:02.065Z,75.28
2023-02-11T19:36:30.089Z,75.04
2023-02-11T19:39:01.609Z,75.30
2023-02-11T19:41:29.734Z,75.57
2023-02-11T19:43:57.859Z,76.16
2023-02-11T19:46:27.563Z,75.41
2023-02-11T19:48:55.214Z,76.14
2023-02-11T19:51:25.601Z,75.44
2023-02-11T19:53:54.175Z,75.57
2023-02-11T19:56:23.283Z,76.00
2023-02-11T19:58:51.418Z,75.55
2023-02-11T20:01:20.777Z,75.53
2023-02-11T20:03:50.165Z,75.03
2023-02-11T20:06:23.637Z,75.25
2023-02-11T20:08:59.204Z,74.84
2023-02-11T20:11:28.579Z,74.35
2023-02-11T20:13:56.803Z,74.53
2023-02-11T20:16:44.685Z,73.63
2023-02-11T20:19:18.358Z,73.34
2023-02-11T20:21:47.516Z,74.54
2023-02-11T20:24:17.187Z,74.53
2023-02-11T20:26:47.025Z,73.54
2023-02-11T20:29:17.810Z,72.92
2023-02-11T20:31:46.648Z,72.97
2023-02-11T20:34:15.327Z,73.20
2023-02-11T20:36:43.232Z,73.49
2023-02-11T20:39:11.255Z,73.74
2023-02-11T20:41:40.154Z,73.26
2023-02-11T20:44:08.538Z,73.33
2023-02-11T20:46:37.792Z,73.79
2023-02-11T20:49:06.151Z,73.75
2023-02-11T20:51:37.080Z,73.61
2023-02-11T20:54:06.386Z,73.45
2023-02-11T20:56:36.041Z,73.51
2023-02-11T20:59:04.234Z,73.15
2023-02-11T21:01:35.728Z,73.39
2023-02-11T21:04:24.127Z,73.32
2023-02-11T21:06:53.917Z,73.39
2023-02-11T21:09:23.896Z,73.50
2023-02-11T21:11:57.232Z,73.58
2023-02-11T21:14:25.484Z,72.97
2023-02-11T21:16:53.146Z,73.22
2023-02-11T21:19:21.757Z,73.51
2023-02-11T21:21:49.661Z,73.29
2023-02-11T21:24:17.321Z,73.16
2023-02-11T21:26:45.405Z,73.20
2023-02-11T21:29:13.102Z,72.47
2023-02-11T21:31:40.955Z,72.63
2023-02-11T21:34:09.862Z,72.64
2023-02-11T21:36:37.872Z,72.15
2023-02-11T21:39:06.107Z,71.95
2023-02-11T21:41:35.092Z,71.48
2023-02-11T21:44:11.935Z,71.67
2023-02-11T21:46:39.777Z,71.35
2023-02-11T21:49:07.401Z,71.57
2023-02-11T21:51:36.955Z,71.78
2023-02-11T21:54:07.354Z,71.64
2023-02-11T21:56:36.767Z,71.98
2023-02-11T21:59:04.488Z,71.57
2023-02-11T22:01:33.636Z,71.71
2023-02-11T22:04:01.502Z,71.28
2023-02-11T22:06:31.262Z,71.37
2023-02-11T22:08:59.953Z,71.83
2023-02-11T22:11:29.292Z,71.55
2023-02-11T22:13:58.013Z,71.96
2023-02-11T22:16:29.565Z,71.79
2023-02-11T22:18:58.636Z,72.22
2023-02-11T22:21:26.495Z,71.90
2023-02-11T22:23:55.656Z,72.21
2023-02-11T22:26:24.069Z,71.68
2023-02-11T22:28:51.955Z,72.19
2023-02-11T22:31:28.494Z,72.14
2023-02-11T22:33:56.487Z,72.42
2023-02-11T22:36:30.949Z,72.62
2023-02-11T22:39:03.992Z,72.76
2023-02-11T22:41:31.792Z,72.73
2023-02-11T22:43:59.483Z,72.55
2023-02-11T22:46:27.406Z,72.59
2023-02-11T22:48:55.210Z,72.56
2023-02-11T22:51:24.721Z,72.98
2023-02-11T22:53:55.976Z,73.04
2023-02-11T22:56:24.052Z,72.96
2023-02-11T22:58:51.941Z,73.49
2023-02-11T23:01:19.895Z,73.37
2023-02-11T23:03:47.642Z,72.83
2023-02-11T23:06:15.598Z,73.00
2023-02-11T23:08:44.117Z,73.65
2023-02-11T23:11:22.441Z,73.78
2023-02-11T23:13:53.962Z,73.56
2023-02-11T23:16:23.868Z,74.00
2023-02-11T23:18:51.975Z,74.19
2023-02-11T23:21:25.533Z,73.56
2023-02-11T23:24:00.171Z,73.43
2023-02-11T23:26:27.986Z,73.77
2023-02-11T23:28:55.882Z,73.81
2023-02-11T23:31:34.098Z,73.19
2023-02-11T23:34:01.941Z,72.78
2023-02-11T23:36:30.610Z,72.54
2023-02-11T23:38:58.703Z,72.59
2023-02-11T23:41:26.467Z,72.03
2023-02-11T23:43:55.579Z,72.32
2023-02-11T23:46:24.392Z,71.89
2023-02-11T23:48:52.409Z,71.73
2023-02-11T23:51:20.595Z,71.43
2023-02-11T23:53:51.213Z,71.06
2023-02-11T23:56:21.388Z,71.90
2023-02-11T23:58:49.726Z,71.33
